Latest Weather Observations for Scotts Peak

IDT60801

Issued at 11:02 pm EST Sunday 24 May 2015 (issued every 30 minutes, with the page automatically refreshed every 10 minutes)

About weather observations | Map of weather stations | Latest weather observations for TAS | Other Formats
Station Details ID: 097083 Name: SCOTTS PEAK DAM Lat: -43.04 Lon: 146.27 Height: 408.0 m
Data from the previous 72 hours. | See also: Recent months at Scotts Peak
Date/Time
EST
Temp
°C
App
Temp
°C
Dew
Point
Rel
Hum
%
Delta-T
°C
Wind Press
QNH
hPa
Press
MSL
hPa
Rain
since 9 am
mm
Dir
 
Spd
km/h
Gust
km/h
Spd
kts
Gust
kts
24/11:00pm 6.0 1.0 4.8 92 0.5 NNW 20 24 11 13 - - 0.0
24/10:30pm 5.9 0.5 4.5 91 0.6 N 22 28 12 15 - - 0.0
24/10:00pm 6.1 1.3 4.7 91 0.6 NNW 19 22 10 12 - - 0.0
24/09:30pm 6.2 1.2 4.7 90 0.7 N 20 28 11 15 - - 0.0
24/09:00pm 6.3 1.3 4.5 88 0.8 NNW 20 24 11 13 - - 0.0
24/08:30pm 6.3 2.6 4.3 87 0.9 NNW 13 19 7 10 - - 0.0
24/08:00pm 6.4 3.1 4.4 87 0.9 N 11 15 6 8 - - 0.0
24/07:30pm 6.5 3.5 4.2 85 1.0 NW 9 13 5 7 - - 0.0
24/07:00pm 6.5 3.2 4.5 87 0.9 NNW 11 15 6 8 - - 0.0
24/06:30pm 6.6 2.0 3.8 82 1.2 NW 17 22 9 12 - - 0.0
24/06:00pm 6.7 1.6 4.0 83 1.2 NW 20 30 11 16 - - 0.0
24/05:30pm 6.6 2.5 4.6 87 0.9 NNW 15 17 8 9 - - 0.0
24/05:00pm 6.7 3.0 4.7 87 0.9 NNW 13 15 7 8 - - 0.0
24/04:30pm 7.0 3.3 4.5 84 1.1 NNW 13 17 7 9 - - 0.0
24/04:00pm 7.5 4.2 4.8 83 1.2 NNW 11 15 6 8 - - 0.0
24/03:30pm 7.8 4.2 4.9 82 1.3 NNW 13 17 7 9 - - 0.0
24/03:00pm 8.0 4.0 4.9 81 1.4 NNW 15 17 8 9 - - 0.0
24/02:30pm 8.1 3.7 5.0 81 1.4 N 17 20 9 11 - - 0.0
24/02:00pm 7.6 3.6 4.7 82 1.3 NNW 15 19 8 10 - - 0.0
24/01:30pm 8.3 3.6 5.2 81 1.4 NNW 19 24 10 13 - - 0.0
24/01:00pm 7.2 2.4 4.7 84 1.1 NNW 19 22 10 12 - - 0.0
24/12:30pm 7.6 3.3 5.4 86 1.0 N 17 20 9 11 - - 0.0
24/12:00pm 7.3 2.6 5.1 86 1.0 N 19 22 10 12 - - 0.0
24/11:30am 7.2 2.3 5.0 86 1.0 N 20 26 11 14 - - 0.0
24/11:00am 7.6 2.3 5.2 85 1.1 N 22 26 12 14 - - 0.0
24/10:30am 8.2 3.6 6.3 88 0.9 N 20 24 11 13 - - 0.0
24/10:00am 7.1 2.4 5.9 92 0.6 N 20 24 11 13 - - 0.0
24/09:30am 6.3 1.6 5.9 97 0.2 NNW 20 24 11 13 - - 0.0
24/09:00am 5.8 1.6 5.5 98 0.1 N 17 20 9 11 - - 0.0
24/08:30am 5.4 1.1 5.3 99 0.0 NNW 17 20 9 11 - - 0.0
24/08:00am 4.6 0.1 4.3 98 0.1 N 17 20 9 11 - - 0.0
24/07:30am 4.5 0.0 4.2 98 0.1 N 17 20 9 11 - - 0.0
24/07:00am 3.6 0.0 2.9 95 0.3 NNW 11 17 6 9 - - 0.0
24/06:30am 4.1 0.2 3.2 94 0.4 NW 13 15 7 8 - - 0.0
24/06:00am 4.6 0.4 3.6 93 0.4 NW 15 20 8 11 - - 0.0
24/05:30am 5.3 0.8 4.3 93 0.4 NW 17 20 9 11 - - 0.0
24/05:00am 5.4 0.5 4.1 91 0.6 NW 19 22 10 12 - - 0.0
24/04:30am 5.4 0.5 4.2 92 0.5 NNW 19 24 10 13 - - 0.0
24/04:00am 5.4 0.5 4.1 91 0.6 NW 19 24 10 13 - - 0.0
24/03:30am 5.6 1.1 4.1 90 0.7 NW 17 20 9 11 - - 0.0
24/03:00am 5.6 1.8 3.8 88 0.8 NW 13 15 7 8 - - 0.0
24/02:30am 5.8 0.3 3.8 87 0.9 NW 22 26 12 14 - - 0.0
24/02:00am 6.0 1.1 4.3 89 0.7 NW 19 22 10 12 - - 0.0
24/01:30am 6.1 1.6 4.4 89 0.7 NW 17 20 9 11 - - 0.0
24/01:00am 6.1 1.6 4.1 87 0.9 NW 17 22 9 12 - - 0.0
24/12:30am 6.1 1.2 3.9 86 1.0 NW 19 22 10 12 - - 0.0
24/12:00am 6.1 1.0 4.1 87 0.9 NW 20 28 11 15 - - 0.0
 
Date/Time
EST
Temp
°C
App
Temp
°C
Dew
Point
Rel
Hum
%
Delta-T
°C
Wind Press
QNH
hPa
Press
MSL
hPa
Rain
since 9 am
mm
Dir
 
Spd
km/h
Gust
km/h
Spd
kts
Gust
kts
23/11:30pm 6.1 1.6 4.1 87 0.9 NW 17 20 9 11 - - 0.0
23/11:00pm 6.2 1.1 4.2 87 0.9 NW 20 24 11 13 - - 0.0
23/10:30pm 6.0 0.9 4.0 87 0.9 NNW 20 24 11 13 - - 0.0
23/10:00pm 6.0 0.2 4.3 89 0.7 NW 24 28 13 15 - - 0.0
23/09:30pm 5.9 -0.3 4.5 91 0.6 NNW 26 30 14 16 - - 0.0
23/09:00pm 5.9 -0.7 4.4 90 0.7 NNW 28 32 15 17 - - 0.0
23/08:30pm 6.2 0.4 4.5 89 0.8 NW 24 30 13 16 - - 0.0
23/08:00pm 6.3 0.5 4.3 87 0.9 NW 24 28 13 15 - - 0.0
23/07:30pm 6.3 0.9 4.3 87 0.9 NW 22 26 12 14 - - 0.0
23/07:00pm 6.3 -0.3 4.3 87 0.9 NW 28 32 15 17 - - 0.0
23/06:30pm 6.5 0.4 4.7 88 0.8 NNW 26 30 14 16 - - 0.0
23/06:00pm 6.8 0.5 3.8 81 1.3 WNW 26 33 14 18 - - 0.0
23/05:30pm 6.7 0.1 4.2 84 1.1 NW 28 35 15 19 - - 0.0
23/05:00pm 6.6 0.2 5.1 90 0.7 NW 28 32 15 17 - - 0.0
23/04:30pm 6.9 0.8 4.7 86 1.0 NW 26 30 14 16 - - 0.0
23/04:00pm 7.3 1.4 4.1 80 1.4 NW 24 32 13 17 - - 0.0
23/03:30pm 7.5 2.4 4.3 80 1.4 WNW 20 26 11 14 - - 0.0
23/03:00pm 7.6 2.7 4.9 83 1.2 WNW 20 32 11 17 - - 0.0
23/02:30pm 7.6 2.3 5.2 85 1.1 WNW 22 33 12 18 - - 0.0
23/02:00pm 7.9 2.2 5.0 82 1.3 NW 24 30 13 16 - - 0.0
23/01:30pm 7.7 2.2 3.9 77 1.7 WNW 22 35 12 19 - - 0.0
23/01:00pm 7.7 1.9 4.3 79 1.5 WNW 24 41 13 22 - - 0.0
23/12:30pm 7.4 2.8 6.3 93 0.5 WNW 20 30 11 16 - - 0.0
23/12:00pm 7.1 1.8 4.9 86 1.0 WNW 22 26 12 14 - - 0.0
23/11:30am 7.9 2.9 4.7 80 1.4 WNW 20 30 11 16 - - 0.0
23/11:00am 7.7 0.2 3.4 74 1.9 WNW 32 46 17 25 - - 0.0
23/10:30am 7.2 1.5 4.7 84 1.1 WNW 24 30 13 16 - - 0.0
23/10:00am 7.0 0.5 4.5 84 1.1 WNW 28 39 15 21 - - 0.0
23/09:30am 6.6 -0.3 4.8 88 0.8 NW 30 37 16 20 - - 0.0
23/09:00am 6.6 -1.0 4.1 84 1.1 WNW 33 41 18 22 - - 0.4
23/08:30am 6.3 -1.9 4.5 88 0.8 WNW 37 46 20 25 - - 0.4
23/08:00am 6.0 -1.4 4.8 92 0.5 WNW 33 39 18 21 - - 0.4
23/07:30am 6.0 -0.5 4.6 91 0.6 WNW 28 35 15 19 - - 0.4
23/07:00am 5.8 -1.1 4.8 93 0.4 NW 30 37 16 20 - - 0.4
23/06:30am 5.8 -1.6 4.9 94 0.4 NW 33 41 18 22 - - 0.4
23/06:00am 5.8 -1.6 4.9 94 0.4 NW 33 41 18 22 - - 0.4
23/05:30am 6.0 -0.9 4.5 90 0.7 WNW 30 35 16 19 - - 0.4
23/05:00am 5.8 -2.0 4.9 94 0.4 NW 35 41 19 22 - - 0.4
23/04:30am 5.9 -1.9 4.9 93 0.4 NW 35 44 19 24 - - 0.4
23/04:00am 6.0 -2.3 4.3 89 0.7 WNW 37 46 20 25 - - 0.4
23/03:30am 5.8 -1.9 5.2 96 0.3 NW 35 43 19 23 - - 0.4
23/03:00am 5.8 -1.4 5.1 95 0.3 NW 32 39 17 21 - - 0.4
23/02:30am 5.7 -2.4 5.1 96 0.3 NW 37 44 20 24 - - 0.4
23/02:00am 5.5 -2.3 4.9 96 0.3 NW 35 43 19 23 - - 0.4
23/01:30am 5.7 -2.7 5.4 98 0.1 NW 39 48 21 26 - - 0.4
23/01:00am 5.7 -0.7 5.4 98 0.1 NW 28 32 15 17 - - 0.4
23/12:30am 5.7 -0.3 5.4 98 0.1 NW 26 30 14 16 - - 0.0
23/12:00am 5.5 -1.3 5.2 98 0.1 NW 30 35 16 19 - - 0.0
 
Date/Time
EST
Temp
°C
App
Temp
°C
Dew
Point
Rel
Hum
%
Delta-T
°C
Wind Press
QNH
hPa
Press
MSL
hPa
Rain
since 9 am
mm
Dir
 
Spd
km/h
Gust
km/h
Spd
kts
Gust
kts
22/11:30pm 5.5 -1.0 4.9 96 0.3 NW 28 39 15 21 - - 0.0
22/11:00pm 5.3 -0.8 5.0 98 0.1 NW 26 32 14 17 - - 0.0
22/10:30pm 5.3 -2.1 4.9 97 0.2 NW 33 39 18 21 - - 0.0
22/10:00pm 5.3 -0.8 4.6 95 0.3 NW 26 30 14 16 - - 0.0
22/09:30pm 5.4 -0.4 4.5 94 0.4 WNW 24 35 13 19 - - 0.0
22/09:00pm 5.6 -0.1 4.7 94 0.4 NW 24 37 13 20 - - 0.0
22/08:30pm 5.5 -0.3 4.3 92 0.5 NW 24 30 13 16 - - 0.0
22/08:00pm 5.4 -1.2 4.4 93 0.4 NW 28 35 15 19 - - 0.0
22/07:30pm 5.4 -0.8 4.2 92 0.5 NW 26 33 14 18 - - 0.0
22/07:00pm 5.9 1.0 5.3 96 0.3 W 20 32 11 17 - - 0.0
22/06:30pm 6.1 0.2 5.7 97 0.2 WNW 26 35 14 19 - - 0.0
22/06:00pm 6.3 -0.1 5.3 93 0.5 WNW 28 41 15 22 - - 0.0
22/05:30pm 6.3 -0.1 5.4 94 0.4 NW 28 32 15 17 - - 0.0
22/05:00pm 6.4 -0.4 5.2 92 0.5 WNW 30 37 16 20 - - 0.0
22/04:30pm 6.7 -0.4 5.3 91 0.6 W 32 43 17 23 - - 0.0
22/04:00pm 6.9 -1.2 5.4 90 0.7 W 37 46 20 25 - - 0.0
22/03:30pm 8.4 0.3 5.3 81 1.4 WNW 37 44 20 24 - - 0.0
22/03:00pm 8.5 0.4 5.3 80 1.5 WNW 37 54 20 29 - - 0.0
22/02:30pm 8.9 1.2 5.5 79 1.6 WNW 35 50 19 27 - - 0.0
22/02:00pm 7.9 0.5 5.2 83 1.2 NW 33 46 18 25 - - 0.0
22/01:30pm 8.4 2.2 6.2 86 1.0 NW 28 33 15 18 - - 0.0
22/01:00pm 8.2 2.7 6.0 86 1.0 NW 24 30 13 16 - - 0.0
22/12:30pm 8.6 2.0 5.9 83 1.3 NW 30 35 16 19 - - 0.0
22/12:00pm 8.4 1.2 5.7 83 1.3 WNW 33 41 18 22 - - 0.0
22/11:30am 7.4 0.8 4.4 81 1.3 WNW 28 41 15 22 - - 0.0
22/11:00am 7.2 1.2 5.3 88 0.9 NW 26 33 14 18 - - 0.0
22/10:30am 6.8 1.5 5.0 88 0.8 WNW 22 30 12 16 - - 0.0
22/10:00am 6.0 -0.1 4.8 92 0.5 WNW 26 39 14 21 - - 0.0
22/09:30am 5.8 0.5 4.8 93 0.4 NW 22 26 12 14 - - 0.0
22/09:00am 5.4 0.4 4.5 94 0.4 NW 20 24 11 13 - - 0.2
22/08:30am 4.9 1.2 4.2 95 0.3 NW 13 20 7 11 - - 0.2
22/08:00am 4.5 1.3 3.3 92 0.5 WSW 9 13 5 7 - - 0.2
22/07:30am 4.8 0.8 3.0 88 0.8 WNW 13 19 7 10 - - 0.2
22/07:00am 4.6 2.0 3.1 90 0.6 WNW 6 9 3 5 - - 0.2
22/06:30am 4.7 1.1 3.0 89 0.7 WNW 11 17 6 9 - - 0.2
22/06:00am 4.7 0.0 3.2 90 0.6 WNW 17 24 9 13 - - 0.2
22/05:30am 4.7 1.1 3.0 89 0.7 WNW 11 19 6 10 - - 0.2
22/05:00am 5.0 -0.2 2.5 84 1.0 WNW 19 22 10 12 - - 0.2
22/04:30am 5.2 0.4 2.4 82 1.2 WNW 17 26 9 14 - - 0.2
22/04:00am 5.1 -0.1 2.6 84 1.0 WNW 19 28 10 15 - - 0.2
22/03:30am 5.1 -0.3 2.6 84 1.0 WNW 20 24 11 13 - - 0.2
22/03:00am 5.1 1.0 2.1 81 1.2 W 13 17 7 9 - - 0.2
22/02:30am 5.1 1.7 1.9 80 1.3 W 9 13 5 7 - - 0.2
22/02:00am 5.1 1.0 2.1 81 1.2 WNW 13 17 7 9 - - 0.2
22/01:30am 5.3 0.8 2.3 81 1.2 W 15 20 8 11 - - 0.2
22/01:00am 5.4 1.0 2.6 82 1.2 W 15 20 8 11 - - 0.2
22/12:30am 5.5 1.1 2.8 83 1.1 W 15 24 8 13 - - 0.2
22/12:00am 5.5 2.2 2.5 81 1.3 W 9 15 5 8 - - 0.2
 
Date/Time
EST
Temp
°C
App
Temp
°C
Dew
Point
Rel
Hum
%
Delta-T
°C
Wind Press
QNH
hPa
Press
MSL
hPa
Rain
since 9 am
mm
Dir
 
Spd
km/h
Gust
km/h
Spd
kts
Gust
kts
21/11:30pm 5.5 2.5 2.3 80 1.3 W 7 11 4 6 - - 0.0

Other Formats:

Comma delimited format used in spreadsheet applications
http://www.bom.gov.au/fwo/IDT60801/IDT60801.95958.axf

JavaScript Object Notation format (JSON) in row-major order
http://www.bom.gov.au/fwo/IDT60801/IDT60801.95958.json